Terminal Aerodrome Forecast
Issued by NWS Cleveland, OH

Home | Current Version | Previous Version | Graphics & Text | Print | Product List | Glossary On
Versions: 1 2 3 4 5 6 7 8 9 10 11 12 13 14 15 16 17 18 19
567
FTUS41 KCLE 200827 AAA
TAFERI
TAF AMD
KERI 200827Z 2008/2106 19005KT P6SM OVC025
      TEMPO 2009/2011 SCT025
     FM201100 18005KT P6SM SCT025 BKN150
     FM201800 17008KT P6SM OVC050
     FM202200 15005KT P6SM VCSH OVC035
     FM210200 15003KT 5SM -SHRA OVC008=

USA.gov is the U.S. government's official web portal to all federal, state and local government web resources and services.